Time;durP1;ratioP1;P1;durP2;ratioP2;P2;SDS_P1;SDS_P2;PMS_P1;PMS_P2;Temp;Humidity;BMP_temperature;BMP_pressure;BME280_temperature;BME280_humidity;BME280_pressure;Samples;Min_cycle;Max_cycle;Signal;HPM_P1;HPM_P2
2022/04/30 00:00:31;;;;;;;7.88;3.72;;;6.10;99.90;;;;;;6249795;22;20016;-86
2022/04/30 00:02:57;;;;;;;4.90;3.75;;;6.20;99.90;;;;;;6251108;22;20007;-86
2022/04/30 00:17:51;;;;;;;5.13;2.92;;;6.00;99.90;;;;;;6276711;22;20103;-86
2022/04/30 00:24:17;;;;;;;8.00;4.07;;;5.90;99.90;;;;;;6252440;22;20015;-86
2022/04/30 00:26:43;;;;;;;7.83;3.87;;;6.60;99.90;;;;;;6227674;22;20015;-86
2022/04/30 00:29:10;;;;;;;4.47;3.10;;;5.90;99.90;;;;;;6227697;22;20020;-85
2022/04/30 00:54:31;;;;;;;6.38;4.40;;;5.80;99.90;;;;;;6278310;22;20486;-86
2022/04/30 01:05:00;;;;;;;4.82;3.58;;;5.80;99.90;;;;;;6277823;22;20007;-85
2022/04/30 01:11:25;;;;;;;;;;;5.80;99.90;;;;;;6279053;22;20003;-85
2022/04/30 01:13:51;;;;;;;11.63;4.05;;;5.80;99.90;;;;;;6251645;22;19912;-85
2022/04/30 01:16:18;;;;;;;9.20;3.90;;;5.80;99.90;;;;;;6249070;22;20026;-85
2022/04/30 01:18:44;;;;;;;5.00;3.15;;;5.80;99.90;;;;;;6251550;22;20423;-86
2022/04/30 01:21:12;;;;;;;10.87;3.43;;;5.90;99.90;;;;;;6226587;22;20023;-85
2022/04/30 01:23:42;;;;;;;6.03;3.55;;;5.80;99.90;;;;;;6252213;22;20065;-86
2022/04/30 01:26:09;;;;;;;4.70;3.22;;;5.80;99.90;;;;;;6278509;22;20115;-85
2022/04/30 01:28:37;;;;;;;4.40;3.10;;;5.80;99.90;;;;;;6226298;22;20020;-85
2022/04/30 01:37:22;;;;;;;7.20;3.83;;;5.70;99.90;;;;;;6251428;22;20019;-85
2022/04/30 01:37:22;;;;;;;5.13;3.33;;;5.70;99.90;;;;;;6278287;22;20022;-85
2022/04/30 01:39:57;;;;;;;5.20;3.47;;;5.70;99.90;;;;;;6228324;22;20042;-85
2022/04/30 01:42:25;;;;;;;5.68;4.00;;;5.70;99.90;;;;;;6251336;22;20014;-85
2022/04/30 01:44:53;;;;;;;7.30;2.85;;;5.80;99.90;;;;;;6251209;22;20435;-86
2022/04/30 01:47:19;;;;;;;5.00;3.97;;;5.70;99.90;;;;;;6226011;22;20177;-85
2022/04/30 01:49:45;;;;;;;6.60;3.30;;;5.70;99.90;;;;;;6226154;22;20022;-85
2022/04/30 01:52:13;;;;;;;7.20;3.40;;;5.70;99.90;;;;;;6200793;22;20011;-85
2022/04/30 01:54:39;;;;;;;3.60;3.20;;;5.70;99.90;;;;;;6225472;22;20074;-85
2022/04/30 01:57:05;;;;;;;4.93;3.60;;;5.70;99.90;;;;;;6250863;22;20011;-85
2022/04/30 01:59:31;;;;;;;7.90;4.13;;;5.60;99.90;;;;;;6251128;22;20061;-88
2022/04/30 02:01:59;;;;;;;7.10;4.87;;;5.60;99.90;;;;;;6225503;22;20277;-85
2022/04/30 02:04:26;;;;;;;5.20;3.65;;;6.30;99.90;;;;;;6201232;22;20249;-85
2022/04/30 02:06:52;;;;;;;3.55;2.85;;;5.60;99.90;;;;;;6225310;22;20023;-85
2022/04/30 02:09:19;;;;;;;3.47;2.83;;;5.80;99.90;;;;;;6251041;22;20448;-85
2022/04/30 02:11:45;;;;;;;4.93;2.83;;;5.60;99.90;;;;;;6225470;22;20016;-85
2022/04/30 02:14:13;;;;;;;4.78;3.65;;;5.60;99.90;;;;;;6225204;22;20015;-85
2022/04/30 02:16:41;;;;;;;7.25;3.33;;;6.00;99.90;;;;;;6249615;22;20019;-85
2022/04/30 02:19:08;;;;;;;4.32;3.45;;;6.30;99.90;;;;;;6251105;22;20069;-85
2022/04/30 02:21:35;;;;;;;3.67;2.83;;;5.60;99.90;;;;;;6250308;22;20086;-85
2022/04/30 02:24:02;;;;;;;8.00;4.65;;;5.70;99.90;;;;;;6224980;22;20020;-85
2022/04/30 02:26:28;;;;;;;;;;;5.60;99.90;;;;;;6225145;22;20023;-83
2022/04/30 02:28:57;;;;;;;5.63;2.55;;;5.70;99.90;;;;;;6276443;22;19911;-81
2022/04/30 02:31:25;;;;;;;3.58;3.25;;;6.70;99.90;;;;;;6276914;22;20012;-81
2022/04/30 02:33:56;;;;;;;4.03;2.67;;;5.60;99.90;;;;;;6249579;22;20382;-82
2022/04/30 02:36:26;;;;;;;7.18;3.38;;;5.60;99.90;;;;;;6249981;22;20014;-81
2022/04/30 02:38:59;;;;;;;7.07;3.20;;;5.60;99.90;;;;;;6223894;22;20020;-82
2022/04/30 02:41:26;;;;;;;4.57;2.95;;;5.60;99.90;;;;;;6249971;22;20293;-82
2022/04/30 02:43:52;;;;;;;;;;;5.80;99.90;;;;;;6276645;22;20331;-81
2022/04/30 02:46:21;;;;;;;4.53;3.25;;;5.70;99.90;;;;;;6249811;22;19915;-81
2022/04/30 02:48:48;;;;;;;5.80;3.88;;;5.60;99.90;;;;;;6223769;22;20019;-81
2022/04/30 02:51:15;;;;;;;5.55;2.95;;;5.60;99.90;;;;;;6250231;22;20034;-81
2022/04/30 02:53:44;;;;;;;;;;;5.60;99.90;;;;;;6224329;22;20066;-82
2022/04/30 02:56:10;;;;;;;4.75;3.00;;;5.60;99.90;;;;;;6249910;22;19969;-82
2022/04/30 03:01:21;;;;;;;4.28;2.92;;;5.60;99.90;;;;;;6249690;22;20073;-82
2022/04/30 03:03:47;;;;;;;3.70;2.80;;;5.60;99.90;;;;;;6249177;22;20015;-83
2022/04/30 03:06:14;;;;;;;4.70;3.25;;;6.00;99.90;;;;;;6224338;22;20105;-82
2022/04/30 03:08:40;;;;;;;8.50;4.47;;;6.30;99.90;;;;;;6276439;22;20156;-83
2022/04/30 03:11:07;;;;;;;6.88;4.35;;;5.40;99.90;;;;;;6276945;22;20011;-82
2022/04/30 03:13:35;;;;;;;10.30;3.63;;;5.50;99.90;;;;;;6224095;22;20086;-82
2022/04/30 03:21:44;;;;;;;5.75;3.10;;;5.60;99.90;;;;;;6249745;22;20320;-82
2022/04/30 03:24:18;;;;;;;6.63;3.30;;;5.50;99.90;;;;;;6251675;22;20015;-82
2022/04/30 03:26:45;;;;;;;3.50;2.47;;;5.50;99.90;;;;;;6199070;22;20008;-89
2022/04/30 03:29:11;;;;;;;5.40;3.40;;;5.50;99.90;;;;;;6249015;22;20069;-82
2022/04/30 03:31:40;;;;;;;5.23;2.63;;;5.50;99.90;;;;;;6249623;22;20015;-82
2022/04/30 03:34:08;;;;;;;6.47;3.70;;;5.40;99.90;;;;;;6223188;22;20098;-82
2022/04/30 03:36:34;;;;;;;6.18;3.33;;;5.40;99.90;;;;;;6249283;22;20038;-82
2022/04/30 03:39:00;;;;;;;11.85;3.30;;;6.10;99.90;;;;;;6223358;22;20012;-83
2022/04/30 03:41:26;;;;;;;3.90;3.10;;;5.50;99.90;;;;;;6249445;22;20013;-82
2022/04/30 03:43:51;;;;;;;3.60;2.70;;;5.40;99.90;;;;;;6275899;22;20015;-82
2022/04/30 03:46:17;;;;;;;6.13;3.53;;;6.20;99.90;;;;;;6249033;22;20015;-84
2022/04/30 03:48:43;;;;;;;4.03;3.10;;;6.60;99.90;;;;;;6276129;22;20034;-84
2022/04/30 03:51:09;;;;;;;4.28;3.38;;;5.80;99.90;;;;;;6248817;22;20022;-82
2022/04/30 03:53:39;;;;;;;3.85;3.22;;;5.30;99.90;;;;;;6249236;22;20386;-82
2022/04/30 03:56:08;;;;;;;6.45;3.90;;;5.30;99.90;;;;;;6248443;22;20012;-83
2022/04/30 03:58:33;;;;;;;5.78;3.47;;;5.30;99.90;;;;;;6249100;22;20371;-83
2022/04/30 04:00:59;;;;;;;3.77;2.80;;;5.30;99.90;;;;;;6248549;22;20016;-82
2022/04/30 04:03:25;;;;;;;6.00;3.10;;;5.20;99.90;;;;;;6276068;22;20055;-83
2022/04/30 04:05:51;;;;;;;5.67;2.97;;;5.40;99.90;;;;;;6248744;22;20038;-83
2022/04/30 04:08:17;;;;;;;4.17;2.57;;;5.10;99.90;;;;;;6248976;22;20065;-82
2022/04/30 04:10:43;;;;;;;4.97;3.50;;;5.10;99.90;;;;;;6249405;22;20233;-82
2022/04/30 04:18:38;;;;;;;3.22;2.92;;;5.30;99.90;;;;;;6248664;22;20323;-82
2022/04/30 04:21:04;;;;;;;2.60;2.40;;;5.50;99.90;;;;;;6248853;22;20015;-82
2022/04/30 04:25:58;;;;;;;3.00;2.70;;;5.00;99.90;;;;;;6248787;22;20099;-82
2022/04/30 04:26:15;;;;;;;3.50;2.78;;;5.00;99.90;;;;;;6248537;22;20462;-82
2022/04/30 04:28:41;;;;;;;3.80;3.40;;;4.90;99.90;;;;;;6223660;22;20015;-82
2022/04/30 04:31:06;;;;;;;4.53;3.33;;;4.90;99.90;;;;;;6248784;22;20016;-83
2022/04/30 04:33:32;;;;;;;5.20;2.85;;;4.90;99.90;;;;;;6249135;22;20018;-82
2022/04/30 04:35:57;;;;;;;5.97;2.95;;;5.00;99.90;;;;;;6248104;22;20021;-83
2022/04/30 04:38:23;;;;;;;6.77;2.87;;;5.00;99.90;;;;;;6223047;22;20018;-82
2022/04/30 04:40:49;;;;;;;3.80;3.23;;;5.00;99.90;;;;;;6275855;22;20027;-82
2022/04/30 04:43:15;;;;;;;4.57;2.90;;;5.00;99.90;;;;;;6248770;22;20070;-82
2022/04/30 04:45:41;;;;;;;4.20;3.20;;;6.30;99.90;;;;;;6275914;22;20078;-88
2022/04/30 04:48:08;;;;;;;4.50;3.37;;;5.10;99.90;;;;;;6248364;22;20004;-82
2022/04/30 04:50:34;;;;;;;3.63;3.17;;;5.10;99.90;;;;;;6248952;22;20015;-82
2022/04/30 04:53:00;;;;;;;8.03;4.07;;;5.10;99.90;;;;;;6275115;22;20012;-83
2022/04/30 04:55:25;;;;;;;7.40;4.40;;;5.10;99.90;;;;;;6276122;22;20500;-82
2022/04/30 04:57:51;;;;;;;4.23;3.13;;;5.10;99.90;;;;;;6248568;22;20065;-82
2022/04/30 05:00:17;;;;;;;5.67;3.43;;;6.30;99.90;;;;;;6222858;22;20023;-83
2022/04/30 05:02:43;;;;;;;5.40;3.58;;;5.20;99.90;;;;;;6223968;22;20015;-82
2022/04/30 05:05:10;;;;;;;10.35;4.38;;;5.20;99.90;;;;;;6222947;22;20015;-86
2022/04/30 05:07:36;;;;;;;5.57;3.80;;;5.80;99.90;;;;;;6276605;22;20015;-82
2022/04/30 05:10:02;;;;;;;5.43;3.90;;;5.20;99.90;;;;;;6224929;22;20022;-82
2022/04/30 05:12:28;;;;;;;5.80;3.63;;;5.30;99.90;;;;;;6277845;22;20431;-82
2022/04/30 05:14:54;;;;;;;3.63;3.33;;;5.40;99.90;;;;;;6277607;22;20034;-82
2022/04/30 05:17:20;;;;;;;7.60;3.93;;;5.50;99.90;;;;;;6249705;22;20084;-83
2022/04/30 05:19:45;;;;;;;3.05;2.75;;;5.80;99.90;;;;;;6250643;22;20023;-82
2022/04/30 05:22:13;;;;;;;4.00;3.20;;;6.90;99.90;;;;;;6277409;22;20012;-87
2022/04/30 05:24:39;;;;;;;3.85;3.05;;;5.80;99.90;;;;;;6277422;22;20020;-82
2022/04/30 05:27:08;;;;;;;4.27;3.03;;;5.80;99.90;;;;;;6276608;22;20061;-83
2022/04/30 05:29:34;;;;;;;8.55;3.80;;;5.90;99.90;;;;;;6250679;22;20475;-82
2022/04/30 05:32:00;;;;;;;7.75;4.90;;;6.00;99.90;;;;;;6250542;22;20055;-83
2022/04/30 05:34:27;;;;;;;5.40;3.97;;;6.00;99.90;;;;;;6224993;22;20428;-82
2022/04/30 05:36:53;;;;;;;8.65;4.50;;;6.10;99.90;;;;;;6249879;22;20262;-83
2022/04/30 05:39:19;;;;;;;6.87;3.57;;;7.00;99.90;;;;;;6277124;22;20030;-82
2022/04/30 05:41:46;;;;;;;4.47;3.33;;;6.30;99.90;;;;;;6250293;22;20083;-84
2022/04/30 05:44:12;;;;;;;8.63;3.67;;;6.30;99.90;;;;;;6249896;22;20047;-82
2022/04/30 05:46:41;;;;;;;6.40;3.53;;;6.30;99.90;;;;;;6250365;22;20454;-82
2022/04/30 05:49:06;;;;;;;4.97;3.83;;;6.40;99.90;;;;;;6224906;22;20087;-82
2022/04/30 05:51:32;;;;;;;5.20;4.23;;;6.40;99.90;;;;;;6277585;22;20380;-82
2022/04/30 05:53:58;;;;;;;6.10;3.63;;;6.50;99.90;;;;;;6277555;22;20149;-82
2022/04/30 05:56:23;;;;;;;5.50;3.37;;;6.50;99.90;;;;;;6249554;22;20011;-82
2022/04/30 05:58:49;;;;;;;5.07;4.00;;;6.60;99.90;;;;;;6224848;22;20019;-82
2022/04/30 06:01:15;;;;;;;4.87;3.63;;;6.70;99.90;;;;;;6224513;22;20043;-82
2022/04/30 06:03:41;;;;;;;4.27;3.20;;;7.50;99.90;;;;;;6277388;22;20015;-83
2022/04/30 06:06:07;;;;;;;7.93;3.97;;;6.90;99.90;;;;;;6276702;22;20425;-86
2022/04/30 06:08:32;;;;;;;6.27;3.30;;;6.90;99.90;;;;;;6277152;22;20490;-82
2022/04/30 06:11:00;;;;;;;8.50;3.60;;;7.00;99.90;;;;;;6249970;22;20012;-82
2022/04/30 06:13:25;;;;;;;3.25;2.95;;;7.10;99.90;;;;;;6249804;22;20292;-82
2022/04/30 06:15:51;;;;;;;5.07;3.33;;;7.10;99.90;;;;;;6276638;22;20022;-81
2022/04/30 06:18:17;;;;;;;6.93;3.40;;;7.20;99.90;;;;;;6276249;22;20312;-81
2022/04/30 06:20:43;;;;;;;5.03;3.43;;;7.20;99.90;;;;;;6249870;22;20043;-82
2022/04/30 06:23:09;;;;;;;6.32;3.60;;;7.30;99.90;;;;;;6249687;22;20016;-89
2022/04/30 06:25:37;;;;;;;6.43;4.93;;;7.40;99.90;;;;;;6277064;22;20070;-82
2022/04/30 06:28:03;;;;;;;5.10;2.90;;;7.40;99.90;;;;;;6199741;22;20078;-82
2022/04/30 06:30:29;;;;;;;4.77;3.97;;;7.50;99.90;;;;;;6199292;22;20222;-82
2022/04/30 06:32:55;;;;;;;6.80;3.73;;;7.50;99.90;;;;;;6250008;22;20234;-82
2022/04/30 06:35:20;;;;;;;4.47;3.53;;;7.50;99.90;;;;;;6249864;22;20020;-82
2022/04/30 06:37:46;;;;;;;4.97;3.20;;;7.50;99.90;;;;;;6276701;22;20008;-81
2022/04/30 06:40:12;;;;;;;4.97;3.10;;;7.60;99.90;;;;;;6249571;22;20527;-82
2022/04/30 06:42:42;;;;;;;4.43;3.67;;;7.60;99.90;;;;;;6250003;22;20012;-81
2022/04/30 06:45:12;;;;;;;4.75;3.60;;;7.60;99.90;;;;;;6223274;22;20058;-82
2022/04/30 06:47:39;;;;;;;4.25;3.20;;;7.70;99.90;;;;;;6249645;22;20016;-82
2022/04/30 06:50:05;;;;;;;;;;;7.70;99.90;;;;;;6224545;22;20056;-82
2022/04/30 06:52:31;;;;;;;4.45;3.08;;;7.70;99.90;;;;;;6249094;22;20307;-82
2022/04/30 06:57:43;;;;;;;4.40;3.20;;;8.30;99.90;;;;;;6249249;22;20016;-82
2022/04/30 07:03:02;;;;;;;5.65;3.15;;;7.80;99.90;;;;;;6206594;22;20028;-83
2022/04/30 07:05:28;;;;;;;9.77;3.58;;;7.90;99.90;;;;;;6275636;22;20054;-83
2022/04/30 07:07:53;;;;;;;5.00;3.67;;;7.90;99.90;;;;;;6224203;22;20020;-82
2022/04/30 07:10:19;;;;;;;7.73;3.43;;;7.90;99.90;;;;;;6223407;22;20095;-80
2022/04/30 07:12:45;;;;;;;3.53;3.17;;;8.00;99.90;;;;;;6248774;22;20015;-82
2022/04/30 07:15:11;;;;;;;10.40;4.40;;;8.00;99.90;;;;;;6275886;22;20313;-82
2022/04/30 07:17:38;;;;;;;7.50;3.20;;;8.10;99.90;;;;;;6222629;22;20578;-81
2022/04/30 07:20:06;;;;;;;6.00;3.03;;;8.10;99.90;;;;;;6276272;22;20016;-81
2022/04/30 07:22:32;;;;;;;6.43;3.55;;;8.20;99.90;;;;;;6223231;22;20011;-83
2022/04/30 07:24:57;;;;;;;5.83;3.50;;;8.30;99.90;;;;;;6198478;22;20019;-84
2022/04/30 07:27:23;;;;;;;10.30;3.50;;;8.40;99.90;;;;;;6223833;22;20062;-83
2022/04/30 07:29:49;;;;;;;5.47;3.30;;;8.50;99.90;;;;;;6248464;22;20020;-83
2022/04/30 07:32:15;;;;;;;3.97;3.57;;;8.50;99.90;;;;;;6224026;22;20019;-83
2022/04/30 07:34:40;;;;;;;5.43;3.80;;;8.60;99.90;;;;;;6223426;22;20086;-85
2022/04/30 07:37:10;;;;;;;3.73;2.77;;;8.70;99.90;;;;;;6199243;22;20011;-87
2022/04/30 07:39:37;;;;;;;3.15;2.85;;;8.80;99.90;;;;;;6199367;22;20078;-87
2022/04/30 07:42:03;;;;;;;5.85;3.10;;;8.90;99.90;;;;;;6223634;22;20022;-86
2022/04/30 07:44:30;;;;;;;6.47;3.28;;;9.00;99.90;;;;;;6275854;22;20020;-87
2022/04/30 07:46:56;;;;;;;3.47;2.78;;;9.10;99.90;;;;;;6224312;22;20034;-86
2022/04/30 07:49:22;;;;;;;4.20;3.10;;;9.30;99.90;;;;;;6198676;22;20016;-86
2022/04/30 07:51:57;;;;;;;5.07;2.93;;;9.40;99.90;;;;;;6224169;22;20032;-86
2022/04/30 07:54:24;;;;;;;5.82;2.92;;;9.50;99.90;;;;;;6225280;22;20016;-92
2022/04/30 07:56:53;;;;;;;;;;;9.70;99.90;;;;;;6249503;22;20015;-85
2022/04/30 07:59:20;;;;;;;3.15;2.40;;;10.00;99.90;;;;;;6249733;22;20452;-85
2022/04/30 08:01:46;;;;;;;6.53;4.07;;;9.60;99.90;;;;;;6249419;22;20015;-84
2022/04/30 08:04:12;;;;;;;5.15;3.15;;;10.40;99.90;;;;;;6224133;22;20062;-86
2022/04/30 08:06:38;;;;;;;4.83;2.63;;;10.50;99.90;;;;;;6248677;22;20018;-88
2022/04/30 08:09:06;;;;;;;5.00;2.60;;;10.80;99.90;;;;;;6223458;22;20022;-88
2022/04/30 08:11:32;;;;;;;5.70;2.78;;;11.00;99.90;;;;;;6223281;22;20478;-86
2022/04/30 08:13:58;;;;;;;3.20;2.37;;;10.90;99.90;;;;;;6224155;22;20016;-86
2022/04/30 08:16:24;;;;;;;3.30;2.67;;;11.00;99.90;;;;;;6276216;22;20091;-87
2022/04/30 08:18:50;;;;;;;3.50;2.60;;;11.00;99.90;;;;;;6276009;22;20257;-87
2022/04/30 08:21:16;;;;;;;4.53;2.63;;;11.20;99.90;;;;;;6276374;22;20451;-86
2022/04/30 08:23:45;;;;;;;5.85;2.72;;;11.30;99.90;;;;;;6275891;22;20027;-87
2022/04/30 08:26:11;;;;;;;3.90;2.60;;;11.50;99.90;;;;;;6249108;22;20016;-86
2022/04/30 08:28:36;;;;;;;2.63;2.43;;;11.50;99.90;;;;;;6249135;22;20471;-84
2022/04/30 08:31:02;;;;;;;4.03;3.30;;;11.70;99.90;;;;;;6224411;22;20250;-88
2022/04/30 08:33:28;;;;;;;6.27;2.37;;;12.00;99.90;;;;;;6249048;22;20015;-86
2022/04/30 08:35:59;;;;;;;5.40;2.35;;;12.20;99.90;;;;;;6249015;22;20246;-88
2022/04/30 08:38:25;;;;;;;4.18;2.80;;;12.20;99.90;;;;;;6223730;22;20019;-89
2022/04/30 08:40:53;;;;;;;3.50;2.38;;;12.20;99.90;;;;;;6249243;22;20012;-89
2022/04/30 08:43:32;;;;;;;4.68;2.53;;;12.10;99.90;;;;;;6199635;22;20121;-95
2022/04/30 08:46:04;;;;;;;3.65;2.70;;;12.90;99.90;;;;;;6226085;22;20019;-88
2022/04/30 08:48:30;;;;;;;5.90;4.28;;;12.30;99.90;;;;;;6251635;22;20025;-89
2022/04/30 08:50:56;;;;;;;3.95;2.10;;;12.40;99.90;;;;;;6251195;22;20023;-89
2022/04/30 08:53:25;;;;;;;3.35;2.00;;;12.50;99.90;;;;;;6226105;22;20011;-88
2022/04/30 08:56:00;;;;;;;2.38;2.10;;;12.50;99.90;;;;;;6251035;22;20020;-87
2022/04/30 08:58:28;;;;;;;4.65;2.28;;;12.50;99.90;;;;;;6225639;22;20023;-88
2022/04/30 09:01:07;;;;;;;4.72;3.22;;;12.40;99.90;;;;;;6226385;22;20470;-87
2022/04/30 09:03:49;;;;;;;2.67;2.28;;;12.30;99.90;;;;;;6250425;22;20480;-87
2022/04/30 09:06:29;;;;;;;4.75;1.98;;;12.30;99.90;;;;;;6250980;22;20023;-87
2022/04/30 09:08:57;;;;;;;4.32;2.28;;;11.50;99.90;;;;;;6226760;22;20024;-87
2022/04/30 09:11:27;;;;;;;2.50;2.28;;;12.10;99.90;;;;;;6250853;22;20015;-86
2022/04/30 09:13:53;;;;;;;3.45;2.08;;;12.30;99.90;;;;;;6250691;22;20364;-87
2022/04/30 09:16:26;;;;;;;2.50;2.10;;;12.10;99.90;;;;;;6250678;22;20016;-86
2022/04/30 09:19:02;;;;;;;3.72;1.98;;;11.90;99.90;;;;;;6224718;22;20019;-88
2022/04/30 09:21:28;;;;;;;3.55;2.00;;;11.30;99.90;;;;;;6250767;22;20023;-89
2022/04/30 09:24:03;;;;;;;2.00;1.63;;;11.90;99.90;;;;;;6250574;22;20016;-88
2022/04/30 09:26:39;;;;;;;6.43;2.15;;;12.00;99.90;;;;;;6225194;22;20019;-88
2022/04/30 09:29:24;;;;;;;2.08;1.85;;;11.90;99.90;;;;;;6250472;22;20078;-90
2022/04/30 09:32:02;;;;;;;4.97;2.17;;;12.00;99.90;;;;;;6224787;22;20027;-88
2022/04/30 09:37:43;;;;;;;7.25;2.70;;;12.10;99.90;;;;;;6250383;22;20118;-88
2022/04/30 09:40:14;;;;;;;2.58;1.85;;;12.10;99.90;;;;;;6250421;22;20012;-89
2022/04/30 09:42:46;;;;;;;2.22;2.03;;;12.20;99.90;;;;;;6224637;22;20020;-88
2022/04/30 09:45:36;;;;;;;2.97;2.67;;;12.90;99.90;;;;;;6250057;22;20050;-88
2022/04/30 10:00:15;;;;;;;2.72;1.92;;;13.90;99.90;;;;;;6251266;22;20447;-88
2022/04/30 10:02:45;;;;;;;2.28;1.77;;;14.30;99.90;;;;;;6250783;22;20015;-88
2022/04/30 10:05:11;;;;;;;3.78;1.77;;;14.30;99.90;;;;;;6250858;22;20016;-87
2022/04/30 10:07:40;;;;;;;3.33;2.13;;;14.20;99.90;;;;;;6249818;22;20077;-90
2022/04/30 10:10:15;;;;;;;2.30;1.60;;;14.00;99.90;;;;;;6250584;22;20012;-87
2022/04/30 10:12:58;;;;;;;3.78;2.40;;;13.80;99.90;;;;;;6249910;22;20015;-91
2022/04/30 10:15:30;;;;;;;2.88;1.85;;;13.60;99.90;;;;;;6254035;22;20050;-82
2022/04/30 10:27:01;;;;;;;3.88;1.60;;;12.90;99.90;;;;;;6247053;23;20012;-86
2022/04/30 10:33:09;;;;;;;1.75;1.42;;;12.60;99.90;;;;;;6246917;23;20062;-86
2022/04/30 10:39:56;;;;;;;2.65;1.90;;;13.10;99.90;;;;;;6247014;23;20019;-86
2022/04/30 10:42:47;;;;;;;2.13;1.67;;;12.60;99.90;;;;;;6170281;23;20016;-86
2022/04/30 10:52:24;;;;;;;2.22;2.10;;;12.20;99.90;;;;;;6188842;23;20027;-87
2022/04/30 10:54:54;;;;;;;3.80;2.15;;;12.20;99.90;;;;;;6189439;23;20032;-89
2022/04/30 10:57:23;;;;;;;5.63;2.05;;;12.20;99.90;;;;;;6161057;23;20091;-89
2022/04/30 11:00:11;;;;;;;3.95;3.05;;;12.10;99.90;;;;;;6187587;23;20452;-91
2022/04/30 11:02:39;;;;;;;2.63;2.22;;;12.20;99.90;;;;;;6187669;23;20021;-88
2022/04/30 11:05:18;;;;;;;2.75;2.10;;;12.60;99.90;;;;;;6187379;23;20405;-88
2022/04/30 11:07:47;;;;;;;3.47;2.30;;;12.10;99.90;;;;;;6162389;23;20013;-88
2022/04/30 11:14:33;;;;;;;6.97;2.13;;;12.20;99.90;;;;;;6185048;23;20099;-86
2022/04/30 11:24:39;;;;;;;3.53;2.42;;;12.30;99.90;;;;;;6180133;23;20044;-85
2022/04/30 11:31:21;;;;;;;2.13;1.98;;;12.30;99.90;;;;;;6183896;23;20076;-86
2022/04/30 11:37:38;;;;;;;2.38;1.70;;;12.30;99.90;;;;;;6183639;23;20467;-86
2022/04/30 11:40:05;;;;;;;5.03;2.33;;;12.40;99.90;;;;;;6146780;22;20019;-86
2022/04/30 11:42:30;;;;;;;4.75;2.85;;;12.50;99.90;;;;;;6250233;22;20451;-86
2022/04/30 11:44:57;;;;;;;2.03;1.83;;;12.50;99.90;;;;;;6224764;22;20019;-87
2022/04/30 11:47:31;;;;;;;1.48;1.38;;;12.50;99.90;;;;;;6250039;22;20016;-87
2022/04/30 11:50:10;;;;;;;3.33;2.13;;;12.50;99.90;;;;;;6201265;22;20020;-86
2022/04/30 11:52:37;;;;;;;4.85;2.22;;;12.50;99.90;;;;;;6249490;22;20447;-86
2022/04/30 11:55:07;;;;;;;2.08;1.70;;;12.50;99.90;;;;;;6225240;22;20327;-87
2022/04/30 11:57:43;;;;;;;2.60;2.33;;;12.50;99.90;;;;;;6224866;22;20012;-87
2022/04/30 12:00:11;;;;;;;5.65;3.05;;;12.50;99.90;;;;;;6223669;22;20439;-85
2022/04/30 12:02:39;;;;;;;3.67;1.90;;;12.60;99.90;;;;;;6250007;22;20015;-84
2022/04/30 12:17:00;;;;;;;1.92;1.80;;;12.40;99.90;;;;;;6276212;22;20332;-85
2022/04/30 12:26:03;;;;;;;2.80;1.92;;;12.30;99.90;;;;;;6250075;22;20016;-82
2022/04/30 12:28:30;;;;;;;1.90;1.80;;;12.20;99.90;;;;;;6277014;22;20019;-83
2022/04/30 12:30:56;;;;;;;1.83;1.52;;;12.20;99.90;;;;;;6200229;22;20459;-85
2022/04/30 12:33:22;;;;;;;2.30;2.10;;;12.20;99.90;;;;;;6224696;22;20028;-88
2022/04/30 12:35:58;;;;;;;3.50;1.77;;;12.20;99.90;;;;;;6225425;22;20083;-86
2022/04/30 12:38:24;;;;;;;2.58;1.45;;;12.30;99.90;;;;;;6250938;22;20019;-86
2022/04/30 12:40:50;;;;;;;1.60;1.50;;;12.30;99.90;;;;;;6201155;22;20024;-88
2022/04/30 12:43:17;;;;;;;1.85;1.73;;;12.40;99.90;;;;;;6225303;22;20018;-86
2022/04/30 12:45:48;;;;;;;4.00;2.03;;;12.40;99.90;;;;;;6225338;22;20089;-86
2022/04/30 12:48:15;;;;;;;4.90;1.77;;;12.40;99.90;;;;;;6276889;22;20012;-87
2022/04/30 12:50:41;;;;;;;5.10;2.42;;;12.40;99.90;;;;;;6225677;22;20069;-85
2022/04/30 12:53:09;;;;;;;2.13;1.90;;;12.40;99.90;;;;;;6250232;22;20019;-87
2022/04/30 12:55:39;;;;;;;3.67;2.65;;;12.30;99.90;;;;;;6250885;22;20020;-86
2022/04/30 12:58:06;;;;;;;5.82;2.10;;;12.40;99.90;;;;;;6200188;22;20020;-85
2022/04/30 13:00:34;;;;;;;2.83;2.30;;;12.10;99.90;;;;;;6251706;22;20016;-84
2022/04/30 13:03:00;;;;;;;2.67;2.40;;;12.50;99.90;;;;;;6252446;22;20020;-85
2022/04/30 13:05:27;;;;;;;2.85;1.90;;;12.50;99.90;;;;;;6251382;22;20012;-84
2022/04/30 13:07:53;;;;;;;4.20;2.10;;;12.50;99.90;;;;;;6226516;22;20020;-84
2022/04/30 13:13:41;;;;;;;2.42;2.22;;;12.60;99.90;;;;;;6278355;22;19910;-85
2022/04/30 13:16:09;;;;;;;5.13;2.23;;;12.60;99.90;;;;;;6278665;22;20012;-84
2022/04/30 13:18:37;;;;;;;3.60;1.77;;;12.50;99.90;;;;;;6250423;22;20462;-86
2022/04/30 13:21:03;;;;;;;3.25;2.53;;;12.50;99.90;;;;;;6224658;22;20580;-83
2022/04/30 13:23:30;;;;;;;5.90;2.42;;;12.50;99.90;;;;;;6250186;22;20012;-83
2022/04/30 13:25:55;;;;;;;2.05;1.42;;;12.50;99.90;;;;;;6249812;22;20141;-83
2022/04/30 13:28:21;;;;;;;2.30;1.77;;;12.50;99.90;;;;;;6277234;22;20055;-84
2022/04/30 13:30:47;;;;;;;2.37;1.43;;;12.50;99.90;;;;;;6250290;22;20106;-83
2022/04/30 13:33:13;;;;;;;2.83;2.10;;;12.50;99.90;;;;;;6250069;22;20016;-84
2022/04/30 13:35:38;;;;;;;4.90;2.10;;;12.50;99.90;;;;;;6250506;22;20392;-89
2022/04/30 13:38:04;;;;;;;1.97;1.57;;;12.50;99.90;;;;;;6225288;22;20012;-83
2022/04/30 13:40:30;;;;;;;3.20;1.85;;;11.50;99.90;;;;;;6276966;22;20463;-83
2022/04/30 13:42:56;;;;;;;1.70;1.60;;;13.10;99.90;;;;;;6250082;22;20027;-87
2022/04/30 13:45:22;;;;;;;5.05;1.52;;;12.50;99.90;;;;;;6224621;22;20253;-86
2022/04/30 13:47:52;;;;;;;2.38;1.45;;;11.90;99.90;;;;;;6224879;22;20124;-83
2022/04/30 13:50:20;;;;;;;2.13;1.92;;;12.50;99.90;;;;;;6224428;22;20066;-83
2022/04/30 13:52:45;;;;;;;2.60;2.00;;;12.50;99.90;;;;;;6224505;22;20463;-86
2022/04/30 13:55:12;;;;;;;2.77;1.80;;;12.60;99.90;;;;;;6199577;22;20020;-84
2022/04/30 13:57:38;;;;;;;4.45;2.65;;;12.50;99.90;;;;;;6250531;22;20086;-84
2022/04/30 14:07:18;;;;;;;4.25;2.20;;;12.50;99.90;;;;;;6277992;22;20015;-83
2022/04/30 14:16:09;;;;;;;5.75;2.42;;;12.40;99.90;;;;;;6249724;22;20020;-83
2022/04/30 14:18:35;;;;;;;3.00;1.70;;;11.40;99.90;;;;;;6276710;22;20022;-84
2022/04/30 14:21:08;;;;;;;2.85;1.98;;;12.40;99.90;;;;;;6250156;22;20082;-81
2022/04/30 14:23:36;;;;;;;3.50;2.35;;;12.30;99.90;;;;;;6226057;22;20236;-83
2022/04/30 14:26:05;;;;;;;2.97;2.42;;;12.30;99.90;;;;;;6224090;22;20019;-82
2022/04/30 14:28:33;;;;;;;2.88;2.15;;;12.30;99.90;;;;;;6249216;22;20085;-83
2022/04/30 14:31:01;;;;;;;3.70;1.98;;;12.30;99.90;;;;;;6249779;22;20020;-84
2022/04/30 14:33:27;;;;;;;4.95;2.08;;;12.30;99.90;;;;;;6249437;22;20019;-83
2022/04/30 14:35:53;;;;;;;3.17;2.20;;;12.30;99.90;;;;;;6224603;22;20012;-83
2022/04/30 14:38:29;;;;;;;3.57;2.00;;;12.30;99.90;;;;;;6248914;22;20019;-85
2022/04/30 14:40:57;;;;;;;4.13;2.50;;;12.20;99.90;;;;;;6248925;22;20141;-81
2022/04/30 14:43:23;;;;;;;3.15;2.63;;;12.20;99.90;;;;;;6249672;22;20016;-82
2022/04/30 14:45:49;;;;;;;3.80;2.30;;;12.20;99.90;;;;;;6223417;22;20015;-82
2022/04/30 14:48:15;;;;;;;2.10;1.90;;;11.70;99.90;;;;;;6249731;22;20020;-82
2022/04/30 14:50:40;;;;;;;2.97;2.17;;;12.10;99.90;;;;;;6249373;22;20016;-82
2022/04/30 14:53:07;;;;;;;6.10;2.13;;;12.20;99.90;;;;;;6223853;22;20393;-83
2022/04/30 14:55:33;;;;;;;4.45;2.20;;;12.20;99.90;;;;;;6276083;22;20015;-82
2022/04/30 14:57:59;;;;;;;4.18;2.00;;;12.20;99.90;;;;;;6249075;22;20428;-82
2022/04/30 15:00:27;;;;;;;2.38;1.67;;;12.30;99.90;;;;;;6223401;22;20027;-87
2022/04/30 15:02:55;;;;;;;2.70;1.65;;;12.30;99.90;;;;;;6248924;22;20016;-83
2022/04/30 15:05:21;;;;;;;3.20;2.45;;;12.40;99.90;;;;;;6223214;22;20094;-83
2022/04/30 15:07:47;;;;;;;2.33;1.80;;;12.40;99.90;;;;;;6222863;22;20074;-83
2022/04/30 15:10:21;;;;;;;2.60;2.05;;;12.40;99.90;;;;;;6249047;22;20011;-82
2022/04/30 15:12:46;;;;;;;3.47;2.33;;;12.80;99.90;;;;;;6248650;22;20019;-83
2022/04/30 15:15:12;;;;;;;2.23;1.80;;;12.40;99.90;;;;;;6198892;22;20019;-82
2022/04/30 15:17:38;;;;;;;2.85;1.98;;;13.30;99.90;;;;;;6248559;22;20019;-82
2022/04/30 15:20:06;;;;;;;3.73;2.10;;;12.60;99.90;;;;;;6248778;22;20077;-83
2022/04/30 15:22:34;;;;;;;1.92;1.77;;;12.70;99.90;;;;;;6222887;22;20149;-86
2022/04/30 15:25:03;;;;;;;6.80;2.28;;;12.60;99.90;;;;;;6248363;22;20065;-86
2022/04/30 15:27:39;;;;;;;5.70;3.28;;;12.60;99.90;;;;;;6248694;22;20292;-86
2022/04/30 15:30:17;;;;;;;6.13;2.40;;;12.60;99.90;;;;;;6223661;22;20016;-86
2022/04/30 15:32:57;;;;;;;3.03;2.15;;;12.50;99.90;;;;;;6248723;22;20026;-90
2022/04/30 15:35:28;;;;;;;7.35;2.55;;;12.50;99.90;;;;;;6223991;22;20379;-93
2022/04/30 15:38:42;;;;;;;3.35;2.20;;;12.50;99.90;;;;;;6223710;22;20077;-86
2022/04/30 20:44:19;;;;;;;;;;;;;;;;;;;;;
2022/04/30 22:13:52;;;;;;;9.02;2.92;;;8.50;99.90;;;;;;6271278;22;20023;-92
2022/04/30 22:16:56;;;;;;;;;;;;;;;;;;;;;
2022/04/30 22:25:42;;;;;;;3.80;3.08;;;8.50;99.90;;;;;;6211068;22;20335;-93